Chemical Pioneer — KAFO — position and weather

sailwx.info

Track history (hours):
 
Tides and Currents Weather Stations Pressure Air Temp Water Temp Dewpoint Dewpoint Depression Visibility Wind Speed Wind Dir Waves Ship Positions

Chemical Pioneer

Owner: US Shipping Corp, Edison, NJ. More information available from US FCC via Universal Licensing System and Coast Guard Vessel Documentation Center.

Last reported at 2016-Jul-01 00:34 UTC. Time now 2016-Jul-01 01:02 UTC.
Position N 26°16' W 079°58'.

Type: Tanker. MMSI: 366032000.

Date/timePositionNaut miles runAvg speedWind from/ knotsBaromVisibWave heightAir tempDewpointWater temp
2016-Jul-01 00:34N 26°16' W 079°58'1414.1
2016-Jun-30 23:34N 26°30' W 079°57'1313.4
2016-Jun-30 22:34N 26°43' W 079°56'1313.3
2016-Jun-30 21:33N 26°57' W 079°55'42014.4
2016-Jun-29 16:25N 33°32' W 077°13'1916.5
2016-Jun-29 15:14N 33°46' W 076°57'1116.6
2016-Jun-29 14:33N 33°54' W 076°47'1716.3
2016-Jun-29 13:31N 34°05' W 076°32'26915.0
2016-Jun-28 19:30N 38°17' W 074°34'2015.6
2016-Jun-28 18:15N 38°33' W 074°49'1215.4
2016-Jun-28 17:27N 38°43' W 074°58'1314.2
2016-Jun-28 16:33N 38°54' W 075°05'1313.0
2016-Jun-28 15:33N 39°06' W 075°12'1717.2
2016-Jun-28 14:34N 39°20' W 075°25'1616.3
2016-Jun-28 13:33N 39°35' W 075°33'1414.3
2016-Jun-28 12:34N 39°48' W 075°26'1211.8
2016-Jun-28 11:33N 39°53' W 075°12'7 7.0
2016-Jun-28 10:33N 39°58' W 075°06'1 0.9
2016-Jun-28 09:33N 39°59' W 075°05'0 0.0
2016-Jun-28 08:33N 39°59' W 075°05'0 0.0
2016-Jun-28 07:33N 39°59' W 075°05'0 0.0
2016-Jun-28 06:33N 39°59' W 075°05'0 0.0
2016-Jun-28 04:33N 39°59' W 075°05'0 0.0
2016-Jun-28 03:33N 39°59' W 075°05'0 0.0
2016-Jun-28 02:33N 39°59' W 075°05'0 0.0
2016-Jun-28 01:33N 39°59' W 075°05'0 0.0
2016-Jun-28 00:33N 39°59' W 075°05'0 0.0
2016-Jun-27 23:33N 39°59' W 075°05'0 0.0
2016-Jun-27 22:33N 39°59' W 075°05'0 0.0
2016-Jun-27 21:33N 39°59' W 075°05'0 0.0
2016-Jun-27 20:33N 39°59' W 075°05'0 0.0
2016-Jun-27 19:33N 39°59' W 075°05'0 0.0
2016-Jun-27 18:33N 39°59' W 075°05'0 0.0
2016-Jun-27 17:33N 39°59' W 075°05'0 0.0
2016-Jun-27 16:34N 39°59' W 075°05'0 0.0
2016-Jun-27 15:34N 39°59' W 075°05'0 0.0
2016-Jun-27 14:34N 39°59' W 075°05'0 0.0
2016-Jun-27 13:34N 39°59' W 075°05'0 0.0
2016-Jun-27 12:32N 39°59' W 075°05'0 0.5
2016-Jun-27 11:33N 39°59' W 075°06'0 0.0
2016-Jun-27 10:33N 39°59' W 075°06'0 0.0
2016-Jun-27 09:33N 39°59' W 075°06'0 0.0
2016-Jun-27 08:33N 39°59' W 075°06'0 0.0
2016-Jun-27 07:33N 39°59' W 075°06'0 0.0
2016-Jun-27 06:33N 39°59' W 075°06'0 0.0
2016-Jun-27 05:33N 39°59' W 075°06'0 0.0
2016-Jun-27 04:33N 39°59' W 075°06'0 0.0
2016-Jun-27 03:32N 39°59' W 075°06'0 0.0
2016-Jun-27 02:32N 39°59' W 075°06'0 0.0
2016-Jun-27 01:32N 39°59' W 075°06'0 0.0
2016-Jun-27 00:32N 39°59' W 075°06'0 0.1
2016-Jun-26 23:34N 39°58' W 075°06'4 4.1
2016-Jun-26 22:33N 39°55' W 075°08'7 7.2
2016-Jun-26 21:33N 39°51' W 075°16'8 8.2
2016-Jun-26 20:33N 39°48' W 075°26'9 8.7
2016-Jun-26 19:33N 39°41' W 075°31'1413.7
2016-Jun-26 18:33N 39°27' W 075°33'1716.7
2016-Jun-26 17:33N 39°14' W 075°19'1616.3
2016-Jun-26 16:33N 39°00' W 075°08'1414.4
2016-Jun-26 15:34N 38°48' W 074°60'7 6.9
2016-Jun-26 14:33N 38°48' W 074°51'7 6.6
2016-Jun-26 13:33N 38°48' W 074°42'6 6.5
2016-Jun-26 12:33N 38°48' W 074°34'5 5.0
2016-Jun-26 11:33N 38°51' W 074°29'6 6.4
2016-Jun-26 10:34N 38°56' W 074°25'9 8.5
2016-Jun-26 09:34N 39°03' W 074°19'7 7.0
2016-Jun-26 08:33N 39°10' W 074°15'7 7.2
2016-Jun-26 07:33N 39°16' W 074°11'7 7.1
2016-Jun-26 06:34N 39°22' W 074°07'7 6.9
2016-Jun-26 05:34N 39°29' W 074°02'7 6.8
2016-Jun-26 04:34N 39°35' W 073°59'7 6.9
2016-Jun-26 03:34N 39°41' W 073°55'7 7.1
2016-Jun-26 02:33N 39°48' W 073°52'7 7.3
2016-Jun-26 01:34N 39°55' W 073°51'7 7.4
2016-Jun-26 00:34N 40°02' W 073°51'7 7.2
2016-Jun-25 23:33N 40°10' W 073°50'7 6.9
2016-Jun-25 22:32N 40°17' W 073°50'7 7.0
2016-Jun-25 21:33N 40°24' W 073°50'6 6.0
2016-Jun-25 20:33N 40°29' W 073°54'1313.2
2016-Jun-25 19:33N 40°39' W 074°05'1 0.9
2016-Jun-25 18:33N 40°39' W 074°06'0 0.0
2016-Jun-25 17:33N 40°39' W 074°06'0 0.0
2016-Jun-25 16:33N 40°39' W 074°06'0 0.0
2016-Jun-25 15:33N 40°39' W 074°06'0 0.0
2016-Jun-25 14:33N 40°39' W 074°06'0 0.0
2016-Jun-25 13:33N 40°39' W 074°06'0 0.0
2016-Jun-25 12:33N 40°39' W 074°06'0 0.0
2016-Jun-25 11:33N 40°39' W 074°06'0 0.0
2016-Jun-25 10:33N 40°39' W 074°06'0 0.0
2016-Jun-25 09:33N 40°39' W 074°06'0 0.0
2016-Jun-25 08:33N 40°39' W 074°06'0 0.0
2016-Jun-25 07:33N 40°39' W 074°06'0 0.0
2016-Jun-25 06:33N 40°39' W 074°06'0 0.0
2016-Jun-25 05:33N 40°39' W 074°06'0 0.0
2016-Jun-25 04:33N 40°39' W 074°06'0 0.0
2016-Jun-25 03:33N 40°39' W 074°06'0 0.0
2016-Jun-25 02:33N 40°39' W 074°06'0 0.0
2016-Jun-25 01:33N 40°39' W 074°06'0 0.0
2016-Jun-25 00:33N 40°39' W 074°06'0 0.0
2016-Jun-24 23:33N 40°39' W 074°06'0 0.0
2016-Jun-24 22:33N 40°39' W 074°06'0 0.0
2016-Jun-24 21:28N 40°39' W 074°06'0 0.0
2016-Jun-24 20:34N 40°39' W 074°06'0 0.0
2016-Jun-24 19:34N 40°39' W 074°06'1 0.9
2016-Jun-24 18:33N 40°39' W 074°05'8 7.8
2016-Jun-24 17:33N 40°31' W 074°02'10 7.0
2016-Jun-24 16:09N 40°31' W 074°15'4 5.7
2016-Jun-24 15:31N 40°34' W 074°13'1 0.3
2016-Jun-24 11:19N 40°35' W 074°12'0 0.0
2016-Jun-24 10:32N 40°35' W 074°12'0 0.0
2016-Jun-24 09:33N 40°35' W 074°12'0 0.0
2016-Jun-24 08:18N 40°35' W 074°12'0 0.0
2016-Jun-24 07:32N 40°35' W 074°12'0 0.0
2016-Jun-24 04:33N 40°35' W 074°12'0 0.0
2016-Jun-24 03:33N 40°35' W 074°12'0 0.0
2016-Jun-23 14:08N 40°35' W 074°12'1 1.7
2016-Jun-23 13:33N 40°36' W 074°12'4 4.5
2016-Jun-23 12:34N 40°39' W 074°07'5 5.4
2016-Jun-23 11:33N 40°35' W 074°02'1111.1
2016-Jun-23 10:33N 40°28' W 073°51'1212.3
2016-Jun-23 09:33N 40°29' W 073°34'6612.3
2016-Jun-23 04:10N 40°42' W 072°09'5514.1
2016-Jun-23 00:16N 41°25' W 071°24'912.3
2016-Jun-22 23:33N 41°33' W 071°19'1312.4
2016-Jun-22 22:33N 41°46' W 071°23'2 1.8
2016-Jun-22 21:30N 41°47' W 071°23'0 0.0
2016-Jun-22 20:32N 41°47' W 071°23'0 0.0
2016-Jun-22 19:33N 41°47' W 071°23'0 0.0
2016-Jun-22 18:33N 41°47' W 071°23'0 0.0
2016-Jun-22 17:32N 41°47' W 071°23'0 0.0
2016-Jun-22 16:30N 41°47' W 071°23'0 0.0
2016-Jun-22 15:33N 41°47' W 071°23'0 0.0
2016-Jun-22 14:33N 41°47' W 071°23'0 0.0
2016-Jun-22 13:24N 41°47' W 071°23'0 0.0
2016-Jun-22 12:33N 41°47' W 071°23'0 0.0
2016-Jun-22 11:32N 41°47' W 071°23'0 0.0
2016-Jun-22 10:33N 41°47' W 071°23'0 0.0
2016-Jun-22 09:32N 41°47' W 071°23'0 0.0
2016-Jun-22 08:33N 41°47' W 071°23'0 0.0
2016-Jun-22 07:33N 41°47' W 071°23'0 0.0
2016-Jun-22 06:30N 41°47' W 071°23'0 0.0
2016-Jun-22 05:33N 41°47' W 071°23'0 0.0
2016-Jun-22 04:33N 41°47' W 071°23'0 0.0
2016-Jun-22 03:31N 41°47' W 071°23'0 0.0
2016-Jun-22 02:32N 41°47' W 071°23'0 0.0
2016-Jun-22 01:32N 41°47' W 071°23'0 0.0
2016-Jun-22 00:33N 41°47' W 071°23'0 0.0
2016-Jun-21 23:33N 41°47' W 071°23'5 4.8
2016-Jun-21 22:33N 41°43' W 071°20'1212.2
2016-Jun-21 21:33N 41°31' W 071°21'88 5.8
2016-Jun-21 06:33N 41°21' W 069°24'19 9.5
2016-Jun-21 04:33N 41°38' W 069°35'10 9.5
2016-Jun-21 03:33N 41°47' W 069°41'1010.0
2016-Jun-21 02:33N 41°55' W 069°47'1515.1
2016-Jun-21 01:33N 42°09' W 069°56'  
Track history (hours):
 
Tides and Currents Weather Stations Pressure Air Temp Water Temp Dewpoint Dewpoint Depression Visibility Wind Speed Wind Dir Waves Ship Positions

Chemical Pioneer

Owner: US Shipping Corp, Edison, NJ. More information available from US FCC via Universal Licensing System and Coast Guard Vessel Documentation Center.

Last reported at 2016-Jul-01 00:34 UTC. Time now 2016-Jul-01 01:02 UTC.
Position N 26°16' W 079°58'.

Type: Tanker. MMSI: 366032000.

Date/timePositionNaut miles runAvg speedWind from/ knotsBaromVisibWave heightAir tempDewpointWater temp
2016-Jul-01 00:34N 26°16' W 079°58'1414.1
2016-Jun-30 23:34N 26°30' W 079°57'1313.4
2016-Jun-30 22:34N 26°43' W 079°56'1313.3
2016-Jun-30 21:33N 26°57' W 079°55'42014.4
2016-Jun-29 16:25N 33°32' W 077°13'1916.5
2016-Jun-29 15:14N 33°46' W 076°57'1116.6
2016-Jun-29 14:33N 33°54' W 076°47'1716.3
2016-Jun-29 13:31N 34°05' W 076°32'26915.0
2016-Jun-28 19:30N 38°17' W 074°34'2015.6
2016-Jun-28 18:15N 38°33' W 074°49'1215.4
2016-Jun-28 17:27N 38°43' W 074°58'1314.2
2016-Jun-28 16:33N 38°54' W 075°05'1313.0
2016-Jun-28 15:33N 39°06' W 075°12'1717.2
2016-Jun-28 14:34N 39°20' W 075°25'1616.3
2016-Jun-28 13:33N 39°35' W 075°33'1414.3
2016-Jun-28 12:34N 39°48' W 075°26'1211.8
2016-Jun-28 11:33N 39°53' W 075°12'7 7.0
2016-Jun-28 10:33N 39°58' W 075°06'1 0.9
2016-Jun-28 09:33N 39°59' W 075°05'0 0.0
2016-Jun-28 08:33N 39°59' W 075°05'0 0.0
2016-Jun-28 07:33N 39°59' W 075°05'0 0.0
2016-Jun-28 06:33N 39°59' W 075°05'0 0.0
2016-Jun-28 04:33N 39°59' W 075°05'0 0.0
2016-Jun-28 03:33N 39°59' W 075°05'0 0.0
2016-Jun-28 02:33N 39°59' W 075°05'0 0.0
2016-Jun-28 01:33N 39°59' W 075°05'0 0.0
2016-Jun-28 00:33N 39°59' W 075°05'0 0.0
2016-Jun-27 23:33N 39°59' W 075°05'0 0.0
2016-Jun-27 22:33N 39°59' W 075°05'0 0.0
2016-Jun-27 21:33N 39°59' W 075°05'0 0.0
2016-Jun-27 20:33N 39°59' W 075°05'0 0.0
2016-Jun-27 19:33N 39°59' W 075°05'0 0.0
2016-Jun-27 18:33N 39°59' W 075°05'0 0.0
2016-Jun-27 17:33N 39°59' W 075°05'0 0.0
2016-Jun-27 16:34N 39°59' W 075°05'0 0.0
2016-Jun-27 15:34N 39°59' W 075°05'0 0.0
2016-Jun-27 14:34N 39°59' W 075°05'0 0.0
2016-Jun-27 13:34N 39°59' W 075°05'0 0.0
2016-Jun-27 12:32N 39°59' W 075°05'0 0.5
2016-Jun-27 11:33N 39°59' W 075°06'0 0.0
2016-Jun-27 10:33N 39°59' W 075°06'0 0.0
2016-Jun-27 09:33N 39°59' W 075°06'0 0.0
2016-Jun-27 08:33N 39°59' W 075°06'0 0.0
2016-Jun-27 07:33N 39°59' W 075°06'0 0.0
2016-Jun-27 06:33N 39°59' W 075°06'0 0.0
2016-Jun-27 05:33N 39°59' W 075°06'0 0.0
2016-Jun-27 04:33N 39°59' W 075°06'0 0.0
2016-Jun-27 03:32N 39°59' W 075°06'0 0.0
2016-Jun-27 02:32N 39°59' W 075°06'0 0.0
2016-Jun-27 01:32N 39°59' W 075°06'0 0.0
2016-Jun-27 00:32N 39°59' W 075°06'0 0.1
2016-Jun-26 23:34N 39°58' W 075°06'4 4.1
2016-Jun-26 22:33N 39°55' W 075°08'7 7.2
2016-Jun-26 21:33N 39°51' W 075°16'8 8.2
2016-Jun-26 20:33N 39°48' W 075°26'9 8.7
2016-Jun-26 19:33N 39°41' W 075°31'1413.7
2016-Jun-26 18:33N 39°27' W 075°33'1716.7
2016-Jun-26 17:33N 39°14' W 075°19'1616.3
2016-Jun-26 16:33N 39°00' W 075°08'1414.4
2016-Jun-26 15:34N 38°48' W 074°60'7 6.9
2016-Jun-26 14:33N 38°48' W 074°51'7 6.6
2016-Jun-26 13:33N 38°48' W 074°42'6 6.5
2016-Jun-26 12:33N 38°48' W 074°34'5 5.0
2016-Jun-26 11:33N 38°51' W 074°29'6 6.4
2016-Jun-26 10:34N 38°56' W 074°25'9 8.5
2016-Jun-26 09:34N 39°03' W 074°19'7 7.0
2016-Jun-26 08:33N 39°10' W 074°15'7 7.2
2016-Jun-26 07:33N 39°16' W 074°11'7 7.1
2016-Jun-26 06:34N 39°22' W 074°07'7 6.9
2016-Jun-26 05:34N 39°29' W 074°02'7 6.8
2016-Jun-26 04:34N 39°35' W 073°59'7 6.9
2016-Jun-26 03:34N 39°41' W 073°55'7 7.1
2016-Jun-26 02:33N 39°48' W 073°52'7 7.3
2016-Jun-26 01:34N 39°55' W 073°51'7 7.4
2016-Jun-26 00:34N 40°02' W 073°51'7 7.2
2016-Jun-25 23:33N 40°10' W 073°50'7 6.9
2016-Jun-25 22:32N 40°17' W 073°50'7 7.0
2016-Jun-25 21:33N 40°24' W 073°50'6 6.0
2016-Jun-25 20:33N 40°29' W 073°54'1313.2
2016-Jun-25 19:33N 40°39' W 074°05'1 0.9
2016-Jun-25 18:33N 40°39' W 074°06'0 0.0
2016-Jun-25 17:33N 40°39' W 074°06'0 0.0
2016-Jun-25 16:33N 40°39' W 074°06'0 0.0
2016-Jun-25 15:33N 40°39' W 074°06'0 0.0
2016-Jun-25 14:33N 40°39' W 074°06'0 0.0
2016-Jun-25 13:33N 40°39' W 074°06'0 0.0
2016-Jun-25 12:33N 40°39' W 074°06'0 0.0
2016-Jun-25 11:33N 40°39' W 074°06'0 0.0
2016-Jun-25 10:33N 40°39' W 074°06'0 0.0
2016-Jun-25 09:33N 40°39' W 074°06'0 0.0
2016-Jun-25 08:33N 40°39' W 074°06'0 0.0
2016-Jun-25 07:33N 40°39' W 074°06'0 0.0
2016-Jun-25 06:33N 40°39' W 074°06'0 0.0
2016-Jun-25 05:33N 40°39' W 074°06'0 0.0
2016-Jun-25 04:33N 40°39' W 074°06'0 0.0
2016-Jun-25 03:33N 40°39' W 074°06'0 0.0
2016-Jun-25 02:33N 40°39' W 074°06'0 0.0
2016-Jun-25 01:33N 40°39' W 074°06'0 0.0
2016-Jun-25 00:33N 40°39' W 074°06'0 0.0
2016-Jun-24 23:33N 40°39' W 074°06'0 0.0
2016-Jun-24 22:33N 40°39' W 074°06'0 0.0
2016-Jun-24 21:28N 40°39' W 074°06'0 0.0
2016-Jun-24 20:34N 40°39' W 074°06'0 0.0
2016-Jun-24 19:34N 40°39' W 074°06'1 0.9
2016-Jun-24 18:33N 40°39' W 074°05'8 7.8
2016-Jun-24 17:33N 40°31' W 074°02'10 7.0
2016-Jun-24 16:09N 40°31' W 074°15'4 5.7
2016-Jun-24 15:31N 40°34' W 074°13'1 0.3
2016-Jun-24 11:19N 40°35' W 074°12'0 0.0
2016-Jun-24 10:32N 40°35' W 074°12'0 0.0
2016-Jun-24 09:33N 40°35' W 074°12'0 0.0
2016-Jun-24 08:18N 40°35' W 074°12'0 0.0
2016-Jun-24 07:32N 40°35' W 074°12'0 0.0
2016-Jun-24 04:33N 40°35' W 074°12'0 0.0
2016-Jun-24 03:33N 40°35' W 074°12'0 0.0
2016-Jun-23 14:08N 40°35' W 074°12'1 1.7
2016-Jun-23 13:33N 40°36' W 074°12'4 4.5
2016-Jun-23 12:34N 40°39' W 074°07'5 5.4
2016-Jun-23 11:33N 40°35' W 074°02'1111.1
2016-Jun-23 10:33N 40°28' W 073°51'1212.3
2016-Jun-23 09:33N 40°29' W 073°34'6612.3
2016-Jun-23 04:10N 40°42' W 072°09'5514.1
2016-Jun-23 00:16N 41°25' W 071°24'912.3
2016-Jun-22 23:33N 41°33' W 071°19'1312.4
2016-Jun-22 22:33N 41°46' W 071°23'2 1.8
2016-Jun-22 21:30N 41°47' W 071°23'0 0.0
2016-Jun-22 20:32N 41°47' W 071°23'0 0.0
2016-Jun-22 19:33N 41°47' W 071°23'0 0.0
2016-Jun-22 18:33N 41°47' W 071°23'0 0.0
2016-Jun-22 17:32N 41°47' W 071°23'0 0.0
2016-Jun-22 16:30N 41°47' W 071°23'0 0.0
2016-Jun-22 15:33N 41°47' W 071°23'0 0.0
2016-Jun-22 14:33N 41°47' W 071°23'0 0.0
2016-Jun-22 13:24N 41°47' W 071°23'0 0.0
2016-Jun-22 12:33N 41°47' W 071°23'0 0.0
2016-Jun-22 11:32N 41°47' W 071°23'0 0.0
2016-Jun-22 10:33N 41°47' W 071°23'0 0.0
2016-Jun-22 09:32N 41°47' W 071°23'0 0.0
2016-Jun-22 08:33N 41°47' W 071°23'0 0.0
2016-Jun-22 07:33N 41°47' W 071°23'0 0.0
2016-Jun-22 06:30N 41°47' W 071°23'0 0.0
2016-Jun-22 05:33N 41°47' W 071°23'0 0.0
2016-Jun-22 04:33N 41°47' W 071°23'0 0.0
2016-Jun-22 03:31N 41°47' W 071°23'0 0.0
2016-Jun-22 02:32N 41°47' W 071°23'0 0.0
2016-Jun-22 01:32N 41°47' W 071°23'0 0.0
2016-Jun-22 00:33N 41°47' W 071°23'0 0.0
2016-Jun-21 23:33N 41°47' W 071°23'5 4.8
2016-Jun-21 22:33N 41°43' W 071°20'1212.2
2016-Jun-21 21:33N 41°31' W 071°21'88 5.8
2016-Jun-21 06:33N 41°21' W 069°24'19 9.5
2016-Jun-21 04:33N 41°38' W 069°35'10 9.5
2016-Jun-21 03:33N 41°47' W 069°41'1010.0
2016-Jun-21 02:33N 41°55' W 069°47'1515.1
2016-Jun-21 01:33N 42°09' W 069°56'  

Dump ship's entire track history